sensor_id;sensor_type;location;lat;lon;timestamp;temperature;humidity
546;DHT22;259;53.304;9.816;2023-03-07T00:01:00;14.60;56.90
546;DHT22;259;53.304;9.816;2023-03-07T00:03:26;14.60;56.90
546;DHT22;259;53.304;9.816;2023-03-07T00:06:06;14.50;56.90
546;DHT22;259;53.304;9.816;2023-03-07T00:08:33;14.50;56.80
546;DHT22;259;53.304;9.816;2023-03-07T00:11:04;14.50;56.90
546;DHT22;259;53.304;9.816;2023-03-07T00:13:32;14.50;57.30
546;DHT22;259;53.304;9.816;2023-03-07T00:16:02;14.40;56.90
546;DHT22;259;53.304;9.816;2023-03-07T00:18:30;14.40;56.90
546;DHT22;259;53.304;9.816;2023-03-07T00:21:02;14.40;57.00
546;DHT22;259;53.304;9.816;2023-03-07T00:23:33;14.40;57.00
546;DHT22;259;53.304;9.816;2023-03-07T00:26:02;14.40;57.10
546;DHT22;259;53.304;9.816;2023-03-07T00:28:29;14.30;57.00
546;DHT22;259;53.304;9.816;2023-03-07T00:30:59;14.30;56.90
546;DHT22;259;53.304;9.816;2023-03-07T00:33:26;14.30;57.00
546;DHT22;259;53.304;9.816;2023-03-07T00:36:06;14.30;57.10
546;DHT22;259;53.304;9.816;2023-03-07T00:38:36;14.20;57.10
546;DHT22;259;53.304;9.816;2023-03-07T00:41:10;14.20;57.20
546;DHT22;259;53.304;9.816;2023-03-07T00:43:41;14.20;57.10
546;DHT22;259;53.304;9.816;2023-03-07T00:46:07;14.20;57.10
546;DHT22;259;53.304;9.816;2023-03-07T00:48:35;14.10;57.10
546;DHT22;259;53.304;9.816;2023-03-07T00:51:02;14.10;57.20
546;DHT22;259;53.304;9.816;2023-03-07T00:53:28;14.10;57.20
546;DHT22;259;53.304;9.816;2023-03-07T00:55:58;14.10;57.20
546;DHT22;259;53.304;9.816;2023-03-07T00:58:30;14.00;57.20
546;DHT22;259;53.304;9.816;2023-03-07T01:00:57;14.00;57.10
546;DHT22;259;53.304;9.816;2023-03-07T01:03:24;14.00;57.20
546;DHT22;259;53.304;9.816;2023-03-07T01:05:51;14.00;57.30
546;DHT22;259;53.304;9.816;2023-03-07T01:08:17;13.90;57.20
546;DHT22;259;53.304;9.816;2023-03-07T01:10:44;13.90;57.20
546;DHT22;259;53.304;9.816;2023-03-07T01:13:10;13.90;57.20
546;DHT22;259;53.304;9.816;2023-03-07T01:15:37;13.90;57.30
546;DHT22;259;53.304;9.816;2023-03-07T01:18:08;13.90;57.30
546;DHT22;259;53.304;9.816;2023-03-07T01:20:36;13.80;57.30
546;DHT22;259;53.304;9.816;2023-03-07T01:23:03;13.80;57.30
546;DHT22;259;53.304;9.816;2023-03-07T01:25:30;13.80;57.30
546;DHT22;259;53.304;9.816;2023-03-07T01:27:55;13.80;57.30
546;DHT22;259;53.304;9.816;2023-03-07T01:30:23;13.80;57.30
546;DHT22;259;53.304;9.816;2023-03-07T01:32:54;13.70;57.30
546;DHT22;259;53.304;9.816;2023-03-07T01:35:21;13.70;57.30
546;DHT22;259;53.304;9.816;2023-03-07T01:37:49;13.70;57.30
546;DHT22;259;53.304;9.816;2023-03-07T01:40:17;13.70;57.40
546;DHT22;259;53.304;9.816;2023-03-07T01:42:44;13.60;57.30
546;DHT22;259;53.304;9.816;2023-03-07T01:47:40;13.60;57.40
546;DHT22;259;53.304;9.816;2023-03-07T01:50:10;13.60;57.40
546;DHT22;259;53.304;9.816;2023-03-07T01:52:50;13.60;57.40
546;DHT22;259;53.304;9.816;2023-03-07T01:55:28;13.50;57.40
546;DHT22;259;53.304;9.816;2023-03-07T01:57:58;13.50;57.40
546;DHT22;259;53.304;9.816;2023-03-07T02:00:28;13.50;57.40
546;DHT22;259;53.304;9.816;2023-03-07T02:05:44;13.40;57.40
546;DHT22;259;53.304;9.816;2023-03-07T02:08:15;13.40;57.40
546;DHT22;259;53.304;9.816;2023-03-07T02:10:42;13.40;57.30
546;DHT22;259;53.304;9.816;2023-03-07T02:13:09;13.40;57.40
546;DHT22;259;53.304;9.816;2023-03-07T02:15:35;13.40;57.40
546;DHT22;259;53.304;9.816;2023-03-07T02:18:02;13.40;57.40
546;DHT22;259;53.304;9.816;2023-03-07T02:20:51;13.40;57.40
546;DHT22;259;53.304;9.816;2023-03-07T02:28:56;13.30;57.40
546;DHT22;259;53.304;9.816;2023-03-07T02:31:23;13.30;58.00
546;DHT22;259;53.304;9.816;2023-03-07T02:33:49;13.30;57.50
546;DHT22;259;53.304;9.816;2023-03-07T02:36:19;13.20;57.40
546;DHT22;259;53.304;9.816;2023-03-07T02:38:49;13.20;57.40
546;DHT22;259;53.304;9.816;2023-03-07T02:41:19;13.20;57.40
546;DHT22;259;53.304;9.816;2023-03-07T02:43:49;13.20;57.40
546;DHT22;259;53.304;9.816;2023-03-07T02:46:15;13.20;57.40
546;DHT22;259;53.304;9.816;2023-03-07T02:48:41;13.20;57.50
546;DHT22;259;53.304;9.816;2023-03-07T02:51:06;13.10;57.50
546;DHT22;259;53.304;9.816;2023-03-07T02:53:32;13.10;57.50
546;DHT22;259;53.304;9.816;2023-03-07T02:55:58;13.10;57.50
546;DHT22;259;53.304;9.816;2023-03-07T02:58:23;13.10;57.40
546;DHT22;259;53.304;9.816;2023-03-07T03:00:49;13.00;57.40
546;DHT22;259;53.304;9.816;2023-03-07T03:03:15;13.00;57.40
546;DHT22;259;53.304;9.816;2023-03-07T03:05:41;13.00;57.40
546;DHT22;259;53.304;9.816;2023-03-07T03:08:06;13.00;57.40
546;DHT22;259;53.304;9.816;2023-03-07T03:10:32;13.00;57.40
546;DHT22;259;53.304;9.816;2023-03-07T03:12:58;13.00;57.50
546;DHT22;259;53.304;9.816;2023-03-07T03:15:23;12.90;57.40
546;DHT22;259;53.304;9.816;2023-03-07T03:17:52;12.90;57.40
546;DHT22;259;53.304;9.816;2023-03-07T03:20:18;12.90;57.50
546;DHT22;259;53.304;9.816;2023-03-07T03:22:43;12.90;57.50
546;DHT22;259;53.304;9.816;2023-03-07T03:25:10;12.80;57.50
546;DHT22;259;53.304;9.816;2023-03-07T03:27:37;12.80;57.60
546;DHT22;259;53.304;9.816;2023-03-07T03:30:05;12.80;57.50
546;DHT22;259;53.304;9.816;2023-03-07T03:32:32;12.80;57.50
546;DHT22;259;53.304;9.816;2023-03-07T03:34:58;12.80;57.40
546;DHT22;259;53.304;9.816;2023-03-07T03:37:24;12.80;57.50
546;DHT22;259;53.304;9.816;2023-03-07T03:39:52;12.80;57.50
546;DHT22;259;53.304;9.816;2023-03-07T03:42:18;12.70;57.60
546;DHT22;259;53.304;9.816;2023-03-07T03:44:44;12.70;57.60
546;DHT22;259;53.304;9.816;2023-03-07T03:47:10;12.70;57.70
546;DHT22;259;53.304;9.816;2023-03-07T03:49:36;12.70;57.70
546;DHT22;259;53.304;9.816;2023-03-07T03:52:02;12.60;57.60
546;DHT22;259;53.304;9.816;2023-03-07T03:54:29;12.60;57.60
546;DHT22;259;53.304;9.816;2023-03-07T03:56:55;12.60;57.60
546;DHT22;259;53.304;9.816;2023-03-07T03:59:21;12.60;57.70
546;DHT22;259;53.304;9.816;2023-03-07T04:01:48;12.60;57.70
546;DHT22;259;53.304;9.816;2023-03-07T04:04:14;12.60;57.60
546;DHT22;259;53.304;9.816;2023-03-07T04:06:39;12.60;57.70
546;DHT22;259;53.304;9.816;2023-03-07T04:09:07;12.50;57.70
546;DHT22;259;53.304;9.816;2023-03-07T04:11:33;12.50;57.70
546;DHT22;259;53.304;9.816;2023-03-07T04:13:59;12.50;57.80
546;DHT22;259;53.304;9.816;2023-03-07T04:16:25;12.50;57.70
546;DHT22;259;53.304;9.816;2023-03-07T04:18:51;12.50;57.80
546;DHT22;259;53.304;9.816;2023-03-07T04:21:18;12.50;57.70
546;DHT22;259;53.304;9.816;2023-03-07T04:23:44;12.40;57.80
546;DHT22;259;53.304;9.816;2023-03-07T04:26:11;12.40;57.70
546;DHT22;259;53.304;9.816;2023-03-07T04:28:41;12.40;57.80
546;DHT22;259;53.304;9.816;2023-03-07T04:31:09;12.40;57.80
546;DHT22;259;53.304;9.816;2023-03-07T04:33:38;12.40;57.80
546;DHT22;259;53.304;9.816;2023-03-07T04:36:04;12.40;57.80
546;DHT22;259;53.304;9.816;2023-03-07T04:38:30;12.30;57.70
546;DHT22;259;53.304;9.816;2023-03-07T04:40:56;12.30;57.80
546;DHT22;259;53.304;9.816;2023-03-07T04:43:22;12.30;57.80
546;DHT22;259;53.304;9.816;2023-03-07T04:45:47;12.30;57.90
546;DHT22;259;53.304;9.816;2023-03-07T04:48:13;12.30;57.90
546;DHT22;259;53.304;9.816;2023-03-07T04:50:39;12.20;57.90
546;DHT22;259;53.304;9.816;2023-03-07T04:53:04;12.20;57.90
546;DHT22;259;53.304;9.816;2023-03-07T04:55:30;12.20;57.90
546;DHT22;259;53.304;9.816;2023-03-07T04:57:56;12.20;58.00
546;DHT22;259;53.304;9.816;2023-03-07T05:00:22;12.20;57.90
546;DHT22;259;53.304;9.816;2023-03-07T05:02:48;12.20;58.00
546;DHT22;259;53.304;9.816;2023-03-07T05:05:15;12.10;57.90
546;DHT22;259;53.304;9.816;2023-03-07T05:07:42;12.10;57.90
546;DHT22;259;53.304;9.816;2023-03-07T05:10:09;12.10;58.00
546;DHT22;259;53.304;9.816;2023-03-07T05:12:35;12.10;58.10
546;DHT22;259;53.304;9.816;2023-03-07T05:15:01;12.10;58.10
546;DHT22;259;53.304;9.816;2023-03-07T05:17:29;12.10;58.00
546;DHT22;259;53.304;9.816;2023-03-07T05:19:55;12.10;57.90
546;DHT22;259;53.304;9.816;2023-03-07T05:22:21;12.10;57.90
546;DHT22;259;53.304;9.816;2023-03-07T05:24:47;12.00;58.00
546;DHT22;259;53.304;9.816;2023-03-07T05:27:13;12.00;58.00
546;DHT22;259;53.304;9.816;2023-03-07T05:29:39;12.00;58.00
546;DHT22;259;53.304;9.816;2023-03-07T05:32:05;12.00;58.10
546;DHT22;259;53.304;9.816;2023-03-07T05:34:30;11.90;58.20
546;DHT22;259;53.304;9.816;2023-03-07T05:36:56;11.90;58.00
546;DHT22;259;53.304;9.816;2023-03-07T05:39:23;11.90;58.00
546;DHT22;259;53.304;9.816;2023-03-07T05:41:49;11.90;58.00
546;DHT22;259;53.304;9.816;2023-03-07T05:44:15;11.90;58.10
546;DHT22;259;53.304;9.816;2023-03-07T05:46:41;11.90;58.00
546;DHT22;259;53.304;9.816;2023-03-07T05:49:07;11.90;58.10
546;DHT22;259;53.304;9.816;2023-03-07T05:51:33;11.80;58.00
546;DHT22;259;53.304;9.816;2023-03-07T05:53:59;11.80;58.00
546;DHT22;259;53.304;9.816;2023-03-07T05:56:25;11.80;58.00
546;DHT22;259;53.304;9.816;2023-03-07T05:58:50;11.80;58.00
546;DHT22;259;53.304;9.816;2023-03-07T06:01:16;11.80;58.00
546;DHT22;259;53.304;9.816;2023-03-07T06:03:42;11.80;58.10
546;DHT22;259;53.304;9.816;2023-03-07T06:06:09;11.80;58.10
546;DHT22;259;53.304;9.816;2023-03-07T06:08:37;11.80;58.10
546;DHT22;259;53.304;9.816;2023-03-07T06:11:02;11.70;58.00
546;DHT22;259;53.304;9.816;2023-03-07T06:13:29;11.70;58.00
546;DHT22;259;53.304;9.816;2023-03-07T06:15:56;11.70;58.00
546;DHT22;259;53.304;9.816;2023-03-07T06:18:23;11.70;58.00
546;DHT22;259;53.304;9.816;2023-03-07T06:20:55;11.70;58.00
546;DHT22;259;53.304;9.816;2023-03-07T06:23:21;11.70;58.00
546;DHT22;259;53.304;9.816;2023-03-07T06:25:46;11.60;57.90
546;DHT22;259;53.304;9.816;2023-03-07T06:28:12;11.70;58.10
546;DHT22;259;53.304;9.816;2023-03-07T06:30:37;11.60;58.00
546;DHT22;259;53.304;9.816;2023-03-07T06:33:03;11.60;57.90
546;DHT22;259;53.304;9.816;2023-03-07T06:35:29;11.60;57.90
546;DHT22;259;53.304;9.816;2023-03-07T06:37:54;11.70;57.80
546;DHT22;259;53.304;9.816;2023-03-07T06:40:20;11.70;57.60
546;DHT22;259;53.304;9.816;2023-03-07T06:42:46;11.80;56.70
546;DHT22;259;53.304;9.816;2023-03-07T06:45:12;11.90;57.10
546;DHT22;259;53.304;9.816;2023-03-07T06:47:37;12.00;56.90
546;DHT22;259;53.304;9.816;2023-03-07T06:50:03;12.20;56.80
546;DHT22;259;53.304;9.816;2023-03-07T06:52:29;12.30;56.50
546;DHT22;259;53.304;9.816;2023-03-07T06:54:55;12.50;56.20
546;DHT22;259;53.304;9.816;2023-03-07T06:57:21;12.70;56.10
546;DHT22;259;53.304;9.816;2023-03-07T06:59:46;13.00;55.80
546;DHT22;259;53.304;9.816;2023-03-07T07:02:13;13.30;56.00
546;DHT22;259;53.304;9.816;2023-03-07T07:04:39;13.60;55.00
546;DHT22;259;53.304;9.816;2023-03-07T07:07:05;14.00;54.50
546;DHT22;259;53.304;9.816;2023-03-07T07:09:32;14.40;53.90
546;DHT22;259;53.304;9.816;2023-03-07T07:11:58;14.90;53.40
546;DHT22;259;53.304;9.816;2023-03-07T07:14:24;15.20;52.80
546;DHT22;259;53.304;9.816;2023-03-07T07:16:50;15.60;52.50
546;DHT22;259;53.304;9.816;2023-03-07T07:19:15;15.90;52.50
546;DHT22;259;53.304;9.816;2023-03-07T07:21:41;16.20;52.30
546;DHT22;259;53.304;9.816;2023-03-07T07:24:10;16.60;51.90
546;DHT22;259;53.304;9.816;2023-03-07T07:26:36;17.00;51.40
546;DHT22;259;53.304;9.816;2023-03-07T07:29:02;17.50;51.20
546;DHT22;259;53.304;9.816;2023-03-07T07:31:28;17.90;50.70
546;DHT22;259;53.304;9.816;2023-03-07T07:33:53;17.80;50.80
546;DHT22;259;53.304;9.816;2023-03-07T07:36:19;18.00;51.40
546;DHT22;259;53.304;9.816;2023-03-07T07:38:45;18.60;51.00
546;DHT22;259;53.304;9.816;2023-03-07T07:41:11;19.10;50.30
546;DHT22;259;53.304;9.816;2023-03-07T07:43:36;19.50;49.70
546;DHT22;259;53.304;9.816;2023-03-07T07:46:03;20.00;49.20
546;DHT22;259;53.304;9.816;2023-03-07T07:48:30;20.50;48.80
546;DHT22;259;53.304;9.816;2023-03-07T07:51:02;20.80;48.50
546;DHT22;259;53.304;9.816;2023-03-07T07:53:28;21.20;48.20
546;DHT22;259;53.304;9.816;2023-03-07T07:55:55;21.70;47.70
546;DHT22;259;53.304;9.816;2023-03-07T07:58:20;21.90;47.40
546;DHT22;259;53.304;9.816;2023-03-07T08:00:46;22.20;47.20
546;DHT22;259;53.304;9.816;2023-03-07T08:03:12;22.40;46.90
546;DHT22;259;53.304;9.816;2023-03-07T08:05:45;22.50;46.80
546;DHT22;259;53.304;9.816;2023-03-07T08:08:16;22.70;46.70
546;DHT22;259;53.304;9.816;2023-03-07T08:10:44;22.70;46.60
546;DHT22;259;53.304;9.816;2023-03-07T08:13:15;22.80;46.80
546;DHT22;259;53.304;9.816;2023-03-07T08:15:42;22.80;46.70
546;DHT22;259;53.304;9.816;2023-03-07T08:18:08;22.70;46.50
546;DHT22;259;53.304;9.816;2023-03-07T08:20:38;22.80;46.60
546;DHT22;259;53.304;9.816;2023-03-07T08:23:05;22.90;46.50
546;DHT22;259;53.304;9.816;2023-03-07T08:25:31;23.10;46.30
546;DHT22;259;53.304;9.816;2023-03-07T08:27:57;23.30;46.20
546;DHT22;259;53.304;9.816;2023-03-07T08:30:25;23.40;46.00
546;DHT22;259;53.304;9.816;2023-03-07T08:32:53;23.60;45.90
546;DHT22;259;53.304;9.816;2023-03-07T08:35:20;23.50;45.80
546;DHT22;259;53.304;9.816;2023-03-07T08:37:47;23.50;45.90
546;DHT22;259;53.304;9.816;2023-03-07T08:40:14;23.50;46.00
546;DHT22;259;53.304;9.816;2023-03-07T08:42:41;23.50;46.00
546;DHT22;259;53.304;9.816;2023-03-07T08:45:08;23.40;46.20
546;DHT22;259;53.304;9.816;2023-03-07T08:47:34;23.40;46.50
546;DHT22;259;53.304;9.816;2023-03-07T08:50:00;23.40;46.50
546;DHT22;259;53.304;9.816;2023-03-07T08:52:26;23.40;46.60
546;DHT22;259;53.304;9.816;2023-03-07T08:54:51;23.40;46.80
546;DHT22;259;53.304;9.816;2023-03-07T08:57:17;23.30;47.00
546;DHT22;259;53.304;9.816;2023-03-07T08:59:43;23.40;47.10
546;DHT22;259;53.304;9.816;2023-03-07T09:02:10;23.50;47.10
546;DHT22;259;53.304;9.816;2023-03-07T09:04:36;23.70;47.10
546;DHT22;259;53.304;9.816;2023-03-07T09:07:02;23.80;46.90
546;DHT22;259;53.304;9.816;2023-03-07T09:09:29;24.00;46.80
546;DHT22;259;53.304;9.816;2023-03-07T09:11:55;24.10;46.80
546;DHT22;259;53.304;9.816;2023-03-07T09:14:21;24.20;46.70
546;DHT22;259;53.304;9.816;2023-03-07T09:16:47;24.30;46.60
546;DHT22;259;53.304;9.816;2023-03-07T09:19:13;24.40;46.70
546;DHT22;259;53.304;9.816;2023-03-07T09:21:39;24.40;46.90
546;DHT22;259;53.304;9.816;2023-03-07T09:24:05;24.50;46.90
546;DHT22;259;53.304;9.816;2023-03-07T09:26:31;24.50;47.20
546;DHT22;259;53.304;9.816;2023-03-07T09:28:57;24.50;46.90
546;DHT22;259;53.304;9.816;2023-03-07T09:31:23;24.60;47.00
546;DHT22;259;53.304;9.816;2023-03-07T09:33:50;24.40;47.20
546;DHT22;259;53.304;9.816;2023-03-07T09:36:17;24.30;47.50
546;DHT22;259;53.304;9.816;2023-03-07T09:38:44;24.30;47.70
546;DHT22;259;53.304;9.816;2023-03-07T09:49:51;23.90;48.20
546;DHT22;259;53.304;9.816;2023-03-07T09:54:59;23.70;48.50
546;DHT22;259;53.304;9.816;2023-03-07T09:57:29;23.60;48.70
546;DHT22;259;53.304;9.816;2023-03-07T10:05:56;23.10;49.10
546;DHT22;259;53.304;9.816;2023-03-07T10:08:28;23.10;49.20
546;DHT22;259;53.304;9.816;2023-03-07T10:14:08;23.30;49.20
546;DHT22;259;53.304;9.816;2023-03-07T10:16:51;23.40;49.00
546;DHT22;259;53.304;9.816;2023-03-07T10:19:34;23.60;48.80
546;DHT22;259;53.304;9.816;2023-03-07T10:25:16;24.20;48.40
546;DHT22;259;53.304;9.816;2023-03-07T10:27:52;24.60;48.10
546;DHT22;259;53.304;9.816;2023-03-07T10:30:20;24.80;47.80
546;DHT22;259;53.304;9.816;2023-03-07T10:32:48;25.10;47.50
546;DHT22;259;53.304;9.816;2023-03-07T10:35:19;25.20;47.20
546;DHT22;259;53.304;9.816;2023-03-07T10:38:01;25.50;46.90
546;DHT22;259;53.304;9.816;2023-03-07T10:40:42;25.80;46.80
546;DHT22;259;53.304;9.816;2023-03-07T10:43:26;25.90;46.60
546;DHT22;259;53.304;9.816;2023-03-07T10:46:14;26.10;46.40
546;DHT22;259;53.304;9.816;2023-03-07T10:48:46;26.20;46.40
546;DHT22;259;53.304;9.816;2023-03-07T10:51:30;26.40;46.40
546;DHT22;259;53.304;9.816;2023-03-07T10:54:04;26.50;46.30
546;DHT22;259;53.304;9.816;2023-03-07T10:56:36;26.60;46.10
546;DHT22;259;53.304;9.816;2023-03-07T10:59:05;26.70;46.00
546;DHT22;259;53.304;9.816;2023-03-07T11:01:53;26.70;46.00
546;DHT22;259;53.304;9.816;2023-03-07T11:04:21;26.70;46.20
546;DHT22;259;53.304;9.816;2023-03-07T11:06:57;26.70;46.20
546;DHT22;259;53.304;9.816;2023-03-07T11:09:30;26.60;46.20
546;DHT22;259;53.304;9.816;2023-03-07T11:14:46;26.50;46.50
546;DHT22;259;53.304;9.816;2023-03-07T11:17:47;26.40;46.60
546;DHT22;259;53.304;9.816;2023-03-07T11:20:22;26.30;46.70
546;DHT22;259;53.304;9.816;2023-03-07T11:23:16;26.20;46.90
546;DHT22;259;53.304;9.816;2023-03-07T11:25:48;26.10;47.10
546;DHT22;259;53.304;9.816;2023-03-07T11:28:33;26.00;47.20
546;DHT22;259;53.304;9.816;2023-03-07T11:34:23;25.70;47.50
546;DHT22;259;53.304;9.816;2023-03-07T11:37:15;25.60;47.70
546;DHT22;259;53.304;9.816;2023-03-07T11:40:21;25.40;47.90
546;DHT22;259;53.304;9.816;2023-03-07T11:48:43;25.00;48.40
546;DHT22;259;53.304;9.816;2023-03-07T11:51:35;24.80;48.90
546;DHT22;259;53.304;9.816;2023-03-07T12:03:50;24.10;49.80
546;DHT22;259;53.304;9.816;2023-03-07T12:21:19;25.40;48.40
546;DHT22;259;53.304;9.816;2023-03-07T12:24:15;25.60;48.00
546;DHT22;259;53.304;9.816;2023-03-07T12:27:59;25.80;47.80
546;DHT22;259;53.304;9.816;2023-03-07T12:30:00;26.10;47.70
546;DHT22;259;53.304;9.816;2023-03-07T12:32:32;26.30;47.60
546;DHT22;259;53.304;9.816;2023-03-07T12:37:40;26.60;47.30
546;DHT22;259;53.304;9.816;2023-03-07T12:40:28;26.70;47.20
546;DHT22;259;53.304;9.816;2023-03-07T12:43:13;26.90;46.90
546;DHT22;259;53.304;9.816;2023-03-07T12:45:56;27.10;46.90
546;DHT22;259;53.304;9.816;2023-03-07T12:48:44;27.10;46.90
546;DHT22;259;53.304;9.816;2023-03-07T12:51:34;27.10;46.90
546;DHT22;259;53.304;9.816;2023-03-07T12:59:32;27.10;46.90
546;DHT22;259;53.304;9.816;2023-03-07T13:02:14;27.10;46.80
546;DHT22;259;53.304;9.816;2023-03-07T13:04:41;27.00;46.90
546;DHT22;259;53.304;9.816;2023-03-07T13:09:44;26.90;47.20
546;DHT22;259;53.304;9.816;2023-03-07T13:14:54;26.60;47.40
546;DHT22;259;53.304;9.816;2023-03-07T13:19:57;26.50;47.80
546;DHT22;259;53.304;9.816;2023-03-07T13:24:52;26.40;48.10
546;DHT22;259;53.304;9.816;2023-03-07T13:27:26;26.20;48.10
546;DHT22;259;53.304;9.816;2023-03-07T13:58:49;25.20;50.70
546;DHT22;259;53.304;9.816;2023-03-07T14:01:22;25.10;52.50
546;DHT22;259;53.304;9.816;2023-03-07T14:06:44;25.00;52.90
546;DHT22;259;53.304;9.816;2023-03-07T14:09:17;24.90;52.90
546;DHT22;259;53.304;9.816;2023-03-07T14:12:05;24.80;52.70
546;DHT22;259;53.304;9.816;2023-03-07T14:14:42;24.80;52.80
546;DHT22;259;53.304;9.816;2023-03-07T14:20:08;24.50;52.80
546;DHT22;259;53.304;9.816;2023-03-07T14:25:37;24.30;53.10
546;DHT22;259;53.304;9.816;2023-03-07T14:28:42;24.20;53.20
546;DHT22;259;53.304;9.816;2023-03-07T14:31:26;24.10;53.40
546;DHT22;259;53.304;9.816;2023-03-07T14:33:56;24.00;53.40
546;DHT22;259;53.304;9.816;2023-03-07T14:36:26;23.90;53.60
546;DHT22;259;53.304;9.816;2023-03-07T14:38:58;23.80;53.70
546;DHT22;259;53.304;9.816;2023-03-07T14:41:46;23.70;53.80
546;DHT22;259;53.304;9.816;2023-03-07T14:44:41;23.60;53.30
546;DHT22;259;53.304;9.816;2023-03-07T14:50:16;23.30;53.90
546;DHT22;259;53.304;9.816;2023-03-07T14:52:43;23.20;54.10
546;DHT22;259;53.304;9.816;2023-03-07T14:55:21;23.10;54.30
546;DHT22;259;53.304;9.816;2023-03-07T14:57:50;23.00;54.30
546;DHT22;259;53.304;9.816;2023-03-07T15:02:55;22.90;54.60
546;DHT22;259;53.304;9.816;2023-03-07T15:05:27;22.80;54.60
546;DHT22;259;53.304;9.816;2023-03-07T15:07:54;22.70;54.80
546;DHT22;259;53.304;9.816;2023-03-07T15:10:25;22.70;54.80
546;DHT22;259;53.304;9.816;2023-03-07T15:12:54;22.60;54.90
546;DHT22;259;53.304;9.816;2023-03-07T15:15:39;22.50;54.80
546;DHT22;259;53.304;9.816;2023-03-07T15:18:34;22.50;54.80
546;DHT22;259;53.304;9.816;2023-03-07T15:21:03;22.40;54.90
546;DHT22;259;53.304;9.816;2023-03-07T15:23:30;22.30;55.10
546;DHT22;259;53.304;9.816;2023-03-07T15:26:01;22.30;55.10
546;DHT22;259;53.304;9.816;2023-03-07T15:28:34;22.20;55.20
546;DHT22;259;53.304;9.816;2023-03-07T15:31:02;22.10;55.10
546;DHT22;259;53.304;9.816;2023-03-07T15:33:30;22.00;55.30
546;DHT22;259;53.304;9.816;2023-03-07T15:38:46;21.90;55.60
546;DHT22;259;53.304;9.816;2023-03-07T15:41:33;21.80;56.10
546;DHT22;259;53.304;9.816;2023-03-07T15:44:04;21.70;55.60
546;DHT22;259;53.304;9.816;2023-03-07T15:46:51;21.60;55.60
546;DHT22;259;53.304;9.816;2023-03-07T15:49:24;21.60;55.80
546;DHT22;259;53.304;9.816;2023-03-07T15:51:52;21.50;55.70
546;DHT22;259;53.304;9.816;2023-03-07T15:54:50;21.40;56.00
546;DHT22;259;53.304;9.816;2023-03-07T15:57:36;21.40;56.50
546;DHT22;259;53.304;9.816;2023-03-07T16:00:07;21.30;56.20
546;DHT22;259;53.304;9.816;2023-03-07T16:02:43;21.30;56.60
546;DHT22;259;53.304;9.816;2023-03-07T16:07:55;21.20;56.90
546;DHT22;259;53.304;9.816;2023-03-07T16:10:26;21.10;56.90
546;DHT22;259;53.304;9.816;2023-03-07T16:12:53;21.10;56.90
546;DHT22;259;53.304;9.816;2023-03-07T16:15:21;21.00;56.80
546;DHT22;259;53.304;9.816;2023-03-07T16:17:49;21.00;56.90
546;DHT22;259;53.304;9.816;2023-03-07T16:20:29;21.00;56.90
546;DHT22;259;53.304;9.816;2023-03-07T16:22:55;20.90;56.80
546;DHT22;259;53.304;9.816;2023-03-07T16:25:22;20.80;56.70
546;DHT22;259;53.304;9.816;2023-03-07T16:27:54;20.70;56.50
546;DHT22;259;53.304;9.816;2023-03-07T16:30:27;20.60;56.20
546;DHT22;259;53.304;9.816;2023-03-07T16:32:54;20.60;56.00
546;DHT22;259;53.304;9.816;2023-03-07T16:35:22;20.50;55.90
546;DHT22;259;53.304;9.816;2023-03-07T16:37:50;20.50;55.70
546;DHT22;259;53.304;9.816;2023-03-07T16:40:17;20.40;55.90
546;DHT22;259;53.304;9.816;2023-03-07T16:42:46;20.40;57.10
546;DHT22;259;53.304;9.816;2023-03-07T16:45:28;20.40;58.10
546;DHT22;259;53.304;9.816;2023-03-07T16:47:59;20.30;58.00
546;DHT22;259;53.304;9.816;2023-03-07T16:50:31;20.20;57.90
546;DHT22;259;53.304;9.816;2023-03-07T16:52:58;20.10;57.30
546;DHT22;259;53.304;9.816;2023-03-07T16:55:24;20.10;57.50
546;DHT22;259;53.304;9.816;2023-03-07T16:57:57;20.00;57.20
546;DHT22;259;53.304;9.816;2023-03-07T17:00:26;20.00;57.10
546;DHT22;259;53.304;9.816;2023-03-07T17:02:53;19.90;57.00
546;DHT22;259;53.304;9.816;2023-03-07T17:05:22;19.80;56.90
546;DHT22;259;53.304;9.816;2023-03-07T17:07:53;19.80;57.00
546;DHT22;259;53.304;9.816;2023-03-07T17:10:21;19.70;57.00
546;DHT22;259;53.304;9.816;2023-03-07T17:12:48;19.70;56.90
546;DHT22;259;53.304;9.816;2023-03-07T17:15:17;19.60;56.90
546;DHT22;259;53.304;9.816;2023-03-07T17:17:44;19.60;56.90
546;DHT22;259;53.304;9.816;2023-03-07T17:20:16;19.50;56.80
546;DHT22;259;53.304;9.816;2023-03-07T17:22:45;19.50;56.80
546;DHT22;259;53.304;9.816;2023-03-07T17:25:11;19.40;56.80
546;DHT22;259;53.304;9.816;2023-03-07T17:27:41;19.30;56.80
546;DHT22;259;53.304;9.816;2023-03-07T17:30:12;19.30;56.70
546;DHT22;259;53.304;9.816;2023-03-07T17:32:46;19.20;56.70
546;DHT22;259;53.304;9.816;2023-03-07T17:35:11;19.20;56.70
546;DHT22;259;53.304;9.816;2023-03-07T17:37:39;19.10;56.60
546;DHT22;259;53.304;9.816;2023-03-07T17:40:06;19.10;56.70
546;DHT22;259;53.304;9.816;2023-03-07T17:42:36;19.00;56.70
546;DHT22;259;53.304;9.816;2023-03-07T17:45:06;19.00;56.70
546;DHT22;259;53.304;9.816;2023-03-07T17:47:33;18.90;56.70
546;DHT22;259;53.304;9.816;2023-03-07T17:50:00;18.90;56.70
546;DHT22;259;53.304;9.816;2023-03-07T17:52:26;18.90;56.70
546;DHT22;259;53.304;9.816;2023-03-07T17:54:52;18.80;56.70
546;DHT22;259;53.304;9.816;2023-03-07T17:57:18;18.70;56.70
546;DHT22;259;53.304;9.816;2023-03-07T17:59:45;18.70;56.70
546;DHT22;259;53.304;9.816;2023-03-07T18:02:12;18.70;56.80
546;DHT22;259;53.304;9.816;2023-03-07T18:04:38;18.60;56.80
546;DHT22;259;53.304;9.816;2023-03-07T18:07:04;18.60;56.80
546;DHT22;259;53.304;9.816;2023-03-07T18:09:31;18.50;56.70
546;DHT22;259;53.304;9.816;2023-03-07T18:11:57;18.50;57.30
546;DHT22;259;53.304;9.816;2023-03-07T18:14:23;18.50;56.80
546;DHT22;259;53.304;9.816;2023-03-07T18:16:49;18.40;56.60
546;DHT22;259;53.304;9.816;2023-03-07T18:19:15;18.40;56.60
546;DHT22;259;53.304;9.816;2023-03-07T18:21:41;18.30;56.60
546;DHT22;259;53.304;9.816;2023-03-07T18:24:22;18.30;56.60
546;DHT22;259;53.304;9.816;2023-03-07T18:26:51;18.30;57.20
546;DHT22;259;53.304;9.816;2023-03-07T18:29:18;18.20;56.60
546;DHT22;259;53.304;9.816;2023-03-07T18:31:44;18.10;56.50
546;DHT22;259;53.304;9.816;2023-03-07T18:34:10;18.10;56.70
546;DHT22;259;53.304;9.816;2023-03-07T18:36:37;18.10;56.70
546;DHT22;259;53.304;9.816;2023-03-07T18:39:04;18.10;56.60
546;DHT22;259;53.304;9.816;2023-03-07T18:41:30;18.00;56.50
546;DHT22;259;53.304;9.816;2023-03-07T18:43:56;18.00;56.60
546;DHT22;259;53.304;9.816;2023-03-07T18:46:25;18.00;56.70
546;DHT22;259;53.304;9.816;2023-03-07T18:48:55;17.90;56.60
546;DHT22;259;53.304;9.816;2023-03-07T18:51:21;17.90;56.70
546;DHT22;259;53.304;9.816;2023-03-07T18:53:50;17.80;56.50
546;DHT22;259;53.304;9.816;2023-03-07T18:56:17;17.80;56.60
546;DHT22;259;53.304;9.816;2023-03-07T18:58:43;17.70;56.40
546;DHT22;259;53.304;9.816;2023-03-07T19:03:49;17.70;56.50
546;DHT22;259;53.304;9.816;2023-03-07T19:06:18;17.70;56.50
546;DHT22;259;53.304;9.816;2023-03-07T19:08:45;17.60;56.30
546;DHT22;259;53.304;9.816;2023-03-07T19:11:12;17.60;56.20